Bertram, TX (78605)

1:00 AM CDT on July 28, 2016 (GMT -0500)
Hidden Oaks Estate in Liberty Hill, TX | | Change Station

Elev 1160 ft 30.72 °N, 97.99 °W | Updated 12 seconds ago

Clear
Clear
75.0 °F
Feels Like 75 °F
N
1.1
Wind Variable Wind from SSE
Gusts 3.0 mph

Today
High -- | Low -- °F
--% Chance of Precip.
Yesterday
High -- | Low -- °F
Precip. -- in
Pressure 29.96 in
Visibility 10.0 miles
Clouds Clear
Heat Index 75 °F
Dew Point 70 °F
Humidity 84%
Rainfall 0.00 in
Snow Depth Not available.
6:47 AM 8:29 PM
Waning Crescent, 35% visible
METAR KBMQ 280553Z AUTO 00000KT 10SM CLR 26/20 A3001 RMK AO2 SLP143 T02560200 10294 20250 403390228 50006
Pressure 29.96 in
Visibility 10.0 miles
Clouds Clear
Heat Index 75 °F
Dew Point 70 °F
Humidity 84%
Rainfall 0.00 in
Snow Depth Not available.
6:47 AM 8:29 PM
Waning Crescent, 35% visible
METAR KBMQ 280553Z AUTO 00000KT 10SM CLR 26/20 A3001 RMK AO2 SLP143 T02560200 10294 20250 403390228 50006

10-Day Weather Forecast

Almanac

Astronomy

Jul. 28, 2016 Rise Set
Actual Time
Civil Twilight
Nautical Twilight
Astronomical Twilight
Moon
Length of Visible Light
Length of Day
Tomorrow will be .
, % of the Moon is Illuminated

Today's Extremes

State Highs State Lows

Community

WunderPhotos

Upload Photos

1,928,064 photos uploaded!

WunderBlog® & News

Nearby

Air Quality

  Air Quality AQ Index Pollutant
Not available.

Snow Depth

Station Depth Elevation

Earthquake Activity

City Distance Mag. Time & Date
Minimum magnitude displayed is 2.5.

Coastal Water Temperatures

Place Temperature

Stations

Nearby Weather Stations

Station Location Temp. Windchill Dew Point Humidity Wind Precip. Elev Updated Type
                   

Watches & Warnings

There are currently no watches in effect.